Time;durP1;ratioP1;P1;durP2;ratioP2;P2;SDS_P1;SDS_P2;PMS_P1;PMS_P2;Temp;Humidity;BMP_temperature;BMP_pressure;BME280_temperature;BME280_humidity;BME280_pressure;Samples;Min_cycle;Max_cycle;Signal;HPM_P1;HPM_P2
2021/01/31 00:01:32;;;;;;;24.83;13.45;;;-1.60;89.70;;;;;;4993979;28;20034;-90
2021/01/31 00:04:04;;;;;;;22.38;13.13;;;-1.60;89.90;;;;;;4990157;28;20019;-91
2021/01/31 00:06:29;;;;;;;22.33;12.70;;;-1.60;89.80;;;;;;4985549;28;20031;-90
2021/01/31 00:08:55;;;;;;;26.42;13.02;;;-1.60;89.80;;;;;;4992308;28;20057;-90
2021/01/31 00:11:21;;;;;;;24.98;13.75;;;-1.60;89.60;;;;;;4993741;28;20100;-91
2021/01/31 00:13:50;;;;;;;23.27;13.60;;;-1.60;90.00;;;;;;4989931;28;20064;-91
2021/01/31 00:16:19;;;;;;;24.38;13.77;;;-1.70;89.80;;;;;;4988168;28;20015;-91
2021/01/31 00:18:48;;;;;;;25.25;13.93;;;-1.70;90.10;;;;;;4975968;28;20416;-90
2021/01/31 00:21:16;;;;;;;25.77;12.75;;;-1.70;90.00;;;;;;4982268;28;20501;-89
2021/01/31 00:23:42;;;;;;;24.58;11.98;;;-1.70;89.20;;;;;;4988491;28;20026;-91
2021/01/31 00:26:08;;;;;;;24.38;12.90;;;-1.70;89.60;;;;;;4983486;28;20405;-90
2021/01/31 00:28:33;;;;;;;23.90;12.55;;;-1.70;89.40;;;;;;4984232;28;20030;-91
2021/01/31 00:30:59;;;;;;;23.58;12.85;;;-1.70;89.40;;;;;;4979328;28;20456;-89
2021/01/31 00:33:29;;;;;;;26.23;12.88;;;-1.70;89.60;;;;;;4990312;28;20393;-90
2021/01/31 00:35:58;;;;;;;24.08;13.98;;;-1.80;89.00;;;;;;4992138;28;20049;-91
2021/01/31 00:38:27;;;;;;;28.48;14.15;;;-1.80;89.50;;;;;;4991652;28;20029;-92
2021/01/31 00:40:59;;;;;;;33.05;14.48;;;-1.80;89.50;;;;;;4988934;28;20030;-88
2021/01/31 00:43:25;;;;;;;30.40;15.57;;;-1.80;89.20;;;;;;4993545;28;20038;-90
2021/01/31 00:45:57;;;;;;;29.55;14.88;;;-1.90;89.30;;;;;;4980715;28;20926;-91
2021/01/31 00:48:23;;;;;;;24.33;13.55;;;-2.00;89.50;;;;;;4993520;28;20042;-90
2021/01/31 00:50:55;;;;;;;26.88;13.75;;;-1.90;89.10;;;;;;4983814;28;20030;-88
2021/01/31 00:53:21;;;;;;;25.73;12.13;;;-1.90;89.20;;;;;;5004048;28;20035;-89
2021/01/31 00:55:52;;;;;;;27.40;13.73;;;-1.90;89.30;;;;;;4988535;28;20101;-91
2021/01/31 00:58:21;;;;;;;24.52;13.63;;;-1.90;89.30;;;;;;4988995;28;20026;-89
2021/01/31 01:00:53;;;;;;;25.50;13.05;;;-1.90;89.70;;;;;;4991406;28;20092;-90
2021/01/31 01:03:25;;;;;;;25.80;13.55;;;-1.90;89.30;;;;;;4986228;28;20053;-91
2021/01/31 01:05:50;;;;;;;26.27;13.40;;;-1.90;89.50;;;;;;4986302;28;20053;-91
2021/01/31 01:08:16;;;;;;;25.35;13.10;;;-1.90;89.30;;;;;;4990913;28;20477;-91
2021/01/31 01:10:41;;;;;;;25.67;13.52;;;-1.90;89.50;;;;;;4983069;28;20038;-90
2021/01/31 01:13:08;;;;;;;23.80;12.70;;;-1.90;89.70;;;;;;4987701;28;20046;-91
2021/01/31 01:15:40;;;;;;;25.15;13.30;;;-1.90;89.20;;;;;;4976303;28;20077;-91
2021/01/31 01:18:05;;;;;;;24.00;12.70;;;-1.90;89.10;;;;;;4987252;28;20053;-91
2021/01/31 01:20:31;;;;;;;26.58;13.32;;;-1.90;89.20;;;;;;4985036;28;20499;-91
2021/01/31 01:22:57;;;;;;;24.08;12.82;;;-1.90;89.50;;;;;;4989266;28;20030;-91
2021/01/31 01:25:28;;;;;;;22.25;12.55;;;-1.90;89.30;;;;;;4977351;28;20113;-92
2021/01/31 01:27:57;;;;;;;30.00;13.38;;;-1.80;89.10;;;;;;4987423;28;20132;-91
2021/01/31 01:30:32;;;;;;;24.27;13.35;;;-1.90;89.40;;;;;;4977754;28;20038;-90
2021/01/31 01:33:22;;;;;;;27.15;14.40;;;-1.90;89.40;;;;;;4985061;28;20048;-90
2021/01/31 01:35:48;;;;;;;24.52;13.07;;;-1.90;89.60;;;;;;4985682;28;20030;-90
2021/01/31 01:38:13;;;;;;;26.90;12.20;;;-1.90;89.70;;;;;;4989062;28;20045;-91
2021/01/31 01:40:46;;;;;;;22.58;12.80;;;-1.90;89.30;;;;;;4986517;28;20023;-91
2021/01/31 01:43:26;;;;;;;25.05;12.95;;;-1.90;88.80;;;;;;4990206;28;20031;-90
2021/01/31 01:46:28;;;;;;;23.63;11.70;;;-1.90;89.00;;;;;;4980966;28;20065;-91
2021/01/31 01:49:19;;;;;;;23.95;11.55;;;-2.00;88.90;;;;;;4976057;28;20061;-90
2021/01/31 01:52:12;;;;;;;22.50;12.20;;;-2.00;89.20;;;;;;4985900;28;20085;-90
2021/01/31 01:54:51;;;;;;;22.17;10.95;;;-2.00;88.90;;;;;;4986173;28;20050;-89
2021/01/31 01:57:26;;;;;;;21.58;11.82;;;-2.10;88.90;;;;;;4992199;28;20073;-91
2021/01/31 02:00:07;;;;;;;20.85;11.02;;;-2.10;89.10;;;;;;4986502;28;20453;-91
2021/01/31 02:02:46;;;;;;;22.13;11.35;;;-2.10;88.80;;;;;;4985369;28;20042;-90
2021/01/31 02:05:20;;;;;;;17.48;10.13;;;-2.20;89.10;;;;;;4983593;28;20030;-90
2021/01/31 02:07:53;;;;;;;20.55;11.30;;;-2.20;88.80;;;;;;4982021;28;20124;-90
2021/01/31 02:10:28;;;;;;;21.67;10.38;;;-2.20;88.40;;;;;;4987868;28;20030;-90
2021/01/31 02:13:10;;;;;;;20.42;11.85;;;-2.20;88.90;;;;;;4974933;28;20329;-90
2021/01/31 02:15:36;;;;;;;20.30;10.23;;;-2.20;88.60;;;;;;4989733;28;20050;-91
2021/01/31 02:18:24;;;;;;;19.63;10.10;;;-2.20;88.80;;;;;;4989197;28;20061;-90
2021/01/31 02:21:32;;;;;;;19.40;10.75;;;-2.20;88.70;;;;;;4977609;28;20023;-91
2021/01/31 02:24:35;;;;;;;19.75;9.95;;;-2.30;88.50;;;;;;4985602;28;20089;-91
2021/01/31 02:27:29;;;;;;;23.20;11.27;;;-2.30;89.10;;;;;;4989860;28;20026;-92
2021/01/31 02:30:42;;;;;;;24.17;11.38;;;-2.30;88.80;;;;;;4989173;28;20078;-91
2021/01/31 02:33:53;;;;;;;19.73;10.73;;;-2.30;89.00;;;;;;4991600;28;20039;-90
2021/01/31 02:36:52;;;;;;;18.65;10.20;;;-2.30;88.90;;;;;;4936110;28;20049;-90
2021/01/31 02:40:02;;;;;;;23.48;11.00;;;-2.30;88.30;;;;;;4934084;29;20031;-92
2021/01/31 02:42:53;;;;;;;18.95;10.88;;;-2.40;87.70;;;;;;4918672;29;20019;-92
2021/01/31 02:45:49;;;;;;;23.10;11.70;;;-2.40;88.00;;;;;;4928898;29;20034;-91
2021/01/31 02:48:59;;;;;;;23.15;10.88;;;-2.40;88.00;;;;;;4934379;29;20489;-91
2021/01/31 02:52:06;;;;;;;20.00;11.25;;;-2.50;88.00;;;;;;4927588;29;20159;-90
2021/01/31 02:54:46;;;;;;;20.98;10.80;;;-2.60;88.10;;;;;;4911185;29;20024;-91
2021/01/31 02:57:51;;;;;;;24.73;12.15;;;-2.70;88.10;;;;;;4924758;29;20059;-91
2021/01/31 03:00:48;;;;;;;20.90;12.75;;;-2.70;88.30;;;;;;4878657;29;20045;-91
2021/01/31 03:03:49;;;;;;;25.42;11.02;;;-2.70;88.70;;;;;;4827790;29;20083;-90
2021/01/31 03:07:00;;;;;;;22.10;11.45;;;-2.70;88.60;;;;;;4821103;29;20030;-90
2021/01/31 03:09:51;;;;;;;24.98;12.50;;;-2.80;88.80;;;;;;4823005;29;20193;-90
2021/01/31 03:13:00;;;;;;;26.75;12.93;;;-2.80;88.90;;;;;;4822091;29;20073;-91
2021/01/31 03:15:47;;;;;;;24.83;11.27;;;-2.90;88.30;;;;;;4837063;29;20089;-90
2021/01/31 03:18:46;;;;;;;24.48;13.00;;;-3.00;88.20;;;;;;4858418;29;20065;-91
2021/01/31 03:21:39;;;;;;;28.00;12.85;;;-3.00;88.50;;;;;;4880255;29;20037;-91
2021/01/31 03:24:38;;;;;;;26.70;13.43;;;-3.10;88.40;;;;;;4885303;29;20041;-92
2021/01/31 03:27:42;;;;;;;30.25;13.32;;;-3.10;88.70;;;;;;4898557;29;20141;-91
2021/01/31 03:30:21;;;;;;;27.30;13.27;;;-3.10;89.00;;;;;;4849318;29;20512;-91
2021/01/31 03:33:07;;;;;;;32.90;16.48;;;-3.20;89.00;;;;;;4842483;29;20102;-92
2021/01/31 03:35:48;;;;;;;29.92;14.43;;;-3.20;89.20;;;;;;4850884;29;20050;-93
2021/01/31 03:38:37;;;;;;;;;;;-3.20;89.20;;;;;;4859767;29;20496;-92
2021/01/31 03:41:38;;;;;;;23.98;12.23;;;-3.20;89.30;;;;;;4945437;28;19950;-91
2021/01/31 03:44:06;;;;;;;25.90;12.98;;;-3.10;89.60;;;;;;4956546;28;20552;-92
2021/01/31 03:46:40;;;;;;;21.50;13.15;;;-3.20;89.20;;;;;;4951926;28;20046;-92
2021/01/31 03:49:41;;;;;;;26.13;13.30;;;-3.20;89.30;;;;;;4960682;28;20029;-91
2021/01/31 03:52:07;;;;;;;21.40;12.45;;;-3.20;88.90;;;;;;4967983;28;20503;-92
2021/01/31 03:54:39;;;;;;;31.27;14.25;;;-3.20;88.70;;;;;;4998512;28;20432;-93
2021/01/31 03:57:34;;;;;;;24.65;13.55;;;-3.20;88.70;;;;;;5002973;28;20092;-92
2021/01/31 04:00:31;;;;;;;25.33;13.30;;;-3.30;88.60;;;;;;5000368;28;20049;-92
2021/01/31 04:03:32;;;;;;;27.63;13.98;;;-3.30;88.80;;;;;;5005920;28;20074;-91
2021/01/31 04:06:06;;;;;;;;;;;-3.40;88.80;;;;;;5001110;28;20083;-92
2021/01/31 04:08:40;;;;;;;25.90;13.68;;;-3.40;88.80;;;;;;5000422;28;19910;-94
2021/01/31 04:11:14;;;;;;;23.42;12.55;;;-3.40;88.50;;;;;;4986139;28;20034;-92
2021/01/31 04:13:49;;;;;;;25.20;12.63;;;-3.50;88.60;;;;;;4998338;28;20038;-91
2021/01/31 04:16:15;;;;;;;27.23;14.23;;;-3.50;89.40;;;;;;4985914;28;20046;-92
2021/01/31 04:18:41;;;;;;;23.48;13.05;;;-3.60;89.30;;;;;;4985770;28;20373;-92
2021/01/31 04:21:06;;;;;;;27.15;13.57;;;-3.70;88.90;;;;;;4990084;28;20026;-93
2021/01/31 04:23:38;;;;;;;27.27;12.27;;;-3.80;88.80;;;;;;4988152;28;20053;-93
2021/01/31 04:26:07;;;;;;;20.02;11.95;;;-3.90;88.90;;;;;;4970916;28;20073;-92
2021/01/31 04:28:32;;;;;;;22.40;11.00;;;-3.90;89.20;;;;;;4986646;28;20029;-93
2021/01/31 04:31:04;;;;;;;25.13;11.85;;;-3.90;89.50;;;;;;5012329;28;20373;-93
2021/01/31 04:33:36;;;;;;;21.27;12.13;;;-4.00;89.70;;;;;;5004650;28;20022;-92
2021/01/31 04:36:11;;;;;;;25.60;12.40;;;-4.00;89.30;;;;;;5002893;28;20019;-91
2021/01/31 04:38:45;;;;;;;22.15;11.90;;;-4.10;89.40;;;;;;4999772;28;20770;-92
2021/01/31 04:41:11;;;;;;;25.35;11.98;;;-4.20;88.90;;;;;;4990747;28;20018;-92
2021/01/31 04:43:43;;;;;;;22.83;12.05;;;-4.30;88.50;;;;;;5007885;28;20038;-91
2021/01/31 04:46:16;;;;;;;29.67;13.10;;;-4.30;88.90;;;;;;4988434;28;20365;-92
2021/01/31 04:49:54;;;;;;;25.73;12.48;;;-4.30;89.70;;;;;;5004072;28;20022;-92
2021/01/31 04:53:01;;;;;;;24.92;12.40;;;-4.30;89.60;;;;;;4937126;29;20044;-92
2021/01/31 04:55:55;;;;;;;20.70;11.45;;;-4.40;89.50;;;;;;4941773;29;20055;-93
2021/01/31 04:58:30;;;;;;;23.88;12.07;;;-4.30;89.80;;;;;;4945066;29;21367;-89
2021/01/31 05:01:29;;;;;;;24.02;11.73;;;-4.30;89.40;;;;;;4937088;29;20122;-91
2021/01/31 05:04:16;;;;;;;22.90;12.15;;;-4.40;89.30;;;;;;4934372;29;20024;-93
2021/01/31 05:07:08;;;;;;;22.70;11.15;;;-4.30;89.70;;;;;;4943006;29;20070;-92
2021/01/31 05:09:40;;;;;;;22.98;11.35;;;-4.30;89.40;;;;;;4926577;29;20082;-91
2021/01/31 05:12:38;;;;;;;23.35;11.45;;;-4.20;89.50;;;;;;4942235;28;20040;-91
2021/01/31 05:15:33;;;;;;;23.10;11.20;;;-4.10;89.40;;;;;;4900678;29;20204;-92
2021/01/31 05:18:06;;;;;;;27.52;11.55;;;-4.10;89.20;;;;;;4899074;29;20088;-92
2021/01/31 05:20:53;;;;;;;20.58;10.85;;;-4.00;89.40;;;;;;4901961;29;20501;-93
2021/01/31 05:23:25;;;;;;;21.15;11.13;;;-3.90;89.20;;;;;;4881063;29;20074;-91
2021/01/31 05:26:14;;;;;;;23.50;10.38;;;-3.90;88.90;;;;;;4915638;29;20062;-91
2021/01/31 05:29:01;;;;;;;20.83;10.38;;;-3.70;88.40;;;;;;4947217;29;20094;-91
2021/01/31 05:31:35;;;;;;;19.40;10.52;;;-3.70;88.50;;;;;;4928779;29;20043;-93
2021/01/31 05:34:44;;;;;;;19.05;11.13;;;-3.60;87.90;;;;;;4936249;29;20047;-92
2021/01/31 05:37:49;;;;;;;22.50;10.38;;;-3.60;88.00;;;;;;4949814;29;20042;-92
2021/01/31 05:40:40;;;;;;;20.65;11.32;;;-3.60;87.50;;;;;;4951991;28;20099;-92
2021/01/31 05:43:13;;;;;;;19.42;10.00;;;-3.60;87.40;;;;;;4936270;29;20098;-92
2021/01/31 05:45:54;;;;;;;18.17;9.70;;;-3.50;87.20;;;;;;4949476;28;20023;-92
2021/01/31 05:49:22;;;;;;;22.15;10.65;;;-3.50;86.90;;;;;;4950955;29;20049;-90
2021/01/31 05:52:04;;;;;;;20.70;10.38;;;-3.50;87.30;;;;;;4925936;29;20054;-90
2021/01/31 05:55:02;;;;;;;22.23;10.05;;;-3.50;86.90;;;;;;4925691;29;20030;-91
2021/01/31 05:57:42;;;;;;;23.33;9.77;;;-3.50;86.70;;;;;;4933099;29;20047;-90
2021/01/31 06:00:38;;;;;;;24.73;10.77;;;-3.60;86.50;;;;;;4938527;29;20140;-88
2021/01/31 06:03:25;;;;;;;19.38;9.85;;;-3.50;86.60;;;;;;4940737;29;20378;-91
2021/01/31 06:06:08;;;;;;;19.17;9.43;;;-3.60;86.00;;;;;;4920308;29;20035;-90
2021/01/31 06:08:56;;;;;;;25.17;10.63;;;-3.60;86.10;;;;;;4920494;29;20036;-90
2021/01/31 06:11:32;;;;;;;23.40;11.43;;;-3.60;86.20;;;;;;4918871;29;20040;-91
2021/01/31 06:14:38;;;;;;;23.05;10.10;;;-3.60;86.40;;;;;;4935832;29;20055;-92
2021/01/31 06:17:35;;;;;;;21.80;9.60;;;-3.60;86.40;;;;;;4931883;29;20035;-91
2021/01/31 06:20:38;;;;;;;19.38;9.93;;;-3.60;86.00;;;;;;4936358;29;20055;-90
2021/01/31 06:23:34;;;;;;;21.73;10.05;;;-3.60;85.90;;;;;;4997242;28;20034;-91
2021/01/31 06:29:23;;;;;;;21.48;10.95;;;-3.50;85.70;;;;;;4970841;28;20178;-90
2021/01/31 06:32:19;;;;;;;22.45;11.18;;;-3.40;85.50;;;;;;4954963;28;20081;-91
2021/01/31 06:35:11;;;;;;;23.63;9.93;;;-3.40;85.20;;;;;;4967235;28;20046;-90
2021/01/31 06:38:16;;;;;;;19.35;9.75;;;-3.40;84.90;;;;;;4954944;28;20027;-89
2021/01/31 06:41:22;;;;;;;19.70;10.77;;;-3.30;85.10;;;;;;4964718;28;20035;-91
2021/01/31 06:44:31;;;;;;;18.60;9.63;;;-3.30;85.30;;;;;;4973450;28;20034;-89
2021/01/31 06:47:38;;;;;;;22.35;11.00;;;-3.30;85.30;;;;;;4971095;28;20047;-91
2021/01/31 06:50:20;;;;;;;22.38;9.70;;;-3.30;85.00;;;;;;4954801;28;20504;-89
2021/01/31 06:53:23;;;;;;;22.08;10.27;;;-3.40;85.50;;;;;;4954325;28;20130;-90
2021/01/31 06:56:12;;;;;;;19.45;9.45;;;-3.50;85.20;;;;;;4973861;28;20033;-90
2021/01/31 06:59:02;;;;;;;21.48;10.18;;;-3.50;85.20;;;;;;4971374;28;20027;-90
2021/01/31 07:01:38;;;;;;;21.13;10.85;;;-3.60;85.30;;;;;;4967357;28;20035;-89
2021/01/31 07:04:12;;;;;;;18.33;8.80;;;-3.70;84.90;;;;;;4960248;28;20072;-89
2021/01/31 07:07:15;;;;;;;23.00;9.68;;;-3.80;85.10;;;;;;4992485;28;20046;-88
2021/01/31 07:10:18;;;;;;;19.45;9.95;;;-3.70;85.70;;;;;;4990076;28;20037;-90
2021/01/31 07:13:11;;;;;;;21.35;10.52;;;-3.70;85.70;;;;;;4972809;28;20046;-90
2021/01/31 07:16:04;;;;;;;20.08;9.85;;;-3.50;85.50;;;;;;4992868;28;20038;-90
2021/01/31 07:19:04;;;;;;;24.55;9.35;;;-3.50;85.40;;;;;;4993055;28;20125;-89
2021/01/31 07:21:52;;;;;;;23.13;10.93;;;-3.40;84.80;;;;;;4990857;28;20046;-89
2021/01/31 07:24:33;;;;;;;27.33;11.25;;;-3.40;84.60;;;;;;4975758;28;20050;-89
2021/01/31 07:27:16;;;;;;;22.23;10.13;;;-3.30;84.70;;;;;;4994268;28;20125;-88
2021/01/31 07:30:28;;;;;;;20.27;10.15;;;-3.20;84.60;;;;;;4992372;28;20070;-89
2021/01/31 07:33:30;;;;;;;19.48;9.18;;;-3.20;84.40;;;;;;4914848;29;20048;-88
2021/01/31 07:36:22;;;;;;;20.52;9.32;;;-3.00;83.90;;;;;;4900138;29;20138;-89
2021/01/31 07:39:24;;;;;;;16.88;9.52;;;-3.00;83.20;;;;;;5012568;28;20376;-89
2021/01/31 07:41:57;;;;;;;22.23;9.82;;;-2.90;83.50;;;;;;4979229;28;20042;-87
2021/01/31 07:44:39;;;;;;;17.48;9.95;;;-2.90;83.50;;;;;;4997182;28;20033;-89
2021/01/31 07:47:11;;;;;;;28.05;10.77;;;-2.80;82.80;;;;;;5006287;28;20030;-88
2021/01/31 07:50:04;;;;;;;20.30;10.00;;;-2.80;82.90;;;;;;5010201;28;20160;-88
2021/01/31 07:53:03;;;;;;;20.05;10.40;;;-2.70;82.80;;;;;;5012770;28;20100;-88
2021/01/31 07:55:41;;;;;;;23.52;10.85;;;-2.60;82.40;;;;;;4953916;28;20039;-88
2021/01/31 07:58:34;;;;;;;22.02;9.40;;;-2.60;82.40;;;;;;4955117;28;20031;-87
2021/01/31 08:01:00;;;;;;;21.65;10.90;;;-2.60;82.20;;;;;;4972441;28;20039;-86
2021/01/31 08:03:26;;;;;;;22.75;10.82;;;-2.50;82.50;;;;;;4971687;28;20019;-86
2021/01/31 08:06:02;;;;;;;24.08;10.90;;;-2.50;82.20;;;;;;4972379;28;20105;-87
2021/01/31 08:08:47;;;;;;;20.00;10.13;;;-2.40;82.70;;;;;;4950030;29;20030;-88
2021/01/31 08:11:18;;;;;;;19.02;9.02;;;-2.30;82.00;;;;;;4973030;28;20046;-88
2021/01/31 08:13:49;;;;;;;16.98;9.13;;;-2.30;81.60;;;;;;4968758;28;20038;-87
2021/01/31 08:16:48;;;;;;;47.42;21.88;;;-2.20;81.30;;;;;;4972301;28;20481;-88
2021/01/31 08:19:17;;;;;;;30.58;16.35;;;-2.10;81.40;;;;;;4970933;28;20102;-87
2021/01/31 08:21:51;;;;;;;18.27;8.70;;;-2.10;81.20;;;;;;4971720;28;20430;-87
2021/01/31 08:24:59;;;;;;;25.50;9.20;;;-2.00;81.00;;;;;;4965536;28;20102;-86
2021/01/31 08:27:42;;;;;;;16.25;7.57;;;-1.90;79.90;;;;;;4911645;29;20040;-86
2021/01/31 08:30:16;;;;;;;14.02;7.00;;;-1.90;78.90;;;;;;4911852;29;20189;-86
2021/01/31 08:33:00;;;;;;;19.15;8.43;;;-1.90;77.80;;;;;;4912732;29;20056;-87
2021/01/31 08:35:30;;;;;;;14.98;8.02;;;-1.80;78.60;;;;;;4911089;29;20418;-86
2021/01/31 08:38:28;;;;;;;18.13;8.20;;;-1.90;79.20;;;;;;4915076;29;20044;-86
2021/01/31 08:41:03;;;;;;;14.30;6.78;;;-1.90;78.20;;;;;;4914386;29;20694;-86
2021/01/31 08:43:31;;;;;;;17.73;6.95;;;-1.90;78.70;;;;;;4913351;29;20075;-87
2021/01/31 08:46:17;;;;;;;13.45;7.55;;;-1.90;77.30;;;;;;4913048;29;20525;-88
2021/01/31 08:49:01;;;;;;;18.13;8.20;;;-1.80;78.60;;;;;;4913950;29;20033;-86
2021/01/31 08:51:32;;;;;;;16.63;7.65;;;-1.80;78.00;;;;;;4893631;29;20044;-87
2021/01/31 08:54:15;;;;;;;13.90;6.90;;;-1.70;78.30;;;;;;4914132;29;20032;-87
2021/01/31 08:57:03;;;;;;;13.80;7.53;;;-1.70;77.80;;;;;;4913172;29;20032;-87
2021/01/31 08:59:43;;;;;;;13.55;7.32;;;-1.70;77.40;;;;;;4913003;29;20040;-87
2021/01/31 09:02:15;;;;;;;16.40;8.07;;;-1.60;78.10;;;;;;4913382;29;20519;-87
2021/01/31 09:05:19;;;;;;;12.95;6.97;;;-1.60;78.60;;;;;;4982171;28;20523;-87
2021/01/31 09:07:47;;;;;;;16.48;7.38;;;-1.60;77.30;;;;;;5009119;28;20527;-86
2021/01/31 09:10:31;;;;;;;12.65;6.88;;;-1.60;77.10;;;;;;5009411;28;20055;-87
2021/01/31 09:13:31;;;;;;;30.85;14.30;;;-1.60;77.20;;;;;;4992479;28;20036;-87
2021/01/31 09:16:29;;;;;;;17.00;7.43;;;-1.40;76.80;;;;;;4917546;29;20164;-85
2021/01/31 09:19:22;;;;;;;14.40;6.97;;;-1.50;76.60;;;;;;4842937;29;20042;-86
2021/01/31 09:21:50;;;;;;;13.30;7.25;;;-1.40;77.00;;;;;;4842056;29;20102;-86
2021/01/31 09:24:19;;;;;;;16.63;7.20;;;-1.40;76.10;;;;;;4858178;29;20029;-85
2021/01/31 09:26:51;;;;;;;15.30;6.78;;;-1.30;77.20;;;;;;4856775;29;20048;-86
2021/01/31 09:29:21;;;;;;;13.38;6.60;;;-1.20;76.60;;;;;;4841082;29;20049;-85
2021/01/31 09:31:52;;;;;;;14.65;6.95;;;-1.20;75.40;;;;;;4855116;29;20120;-86
2021/01/31 09:34:22;;;;;;;15.85;7.68;;;-1.20;76.60;;;;;;4856959;29;20042;-86
2021/01/31 09:37:06;;;;;;;12.52;7.15;;;-1.20;76.40;;;;;;4863010;29;20046;-86
2021/01/31 09:39:34;;;;;;;12.00;6.78;;;-1.20;75.90;;;;;;4868553;29;20025;-87
2021/01/31 09:42:02;;;;;;;11.77;7.40;;;-1.00;75.30;;;;;;4859298;29;20084;-86
2021/01/31 09:44:31;;;;;;;14.77;7.30;;;-1.10;74.50;;;;;;4857214;29;20361;-86
2021/01/31 09:46:57;;;;;;;19.45;8.40;;;-1.10;74.30;;;;;;4839972;29;20513;-85
2021/01/31 09:49:26;;;;;;;14.85;7.72;;;-1.10;75.40;;;;;;4856788;29;20037;-85
2021/01/31 09:51:53;;;;;;;12.93;6.82;;;-1.20;74.70;;;;;;4899369;29;20417;-87
2021/01/31 09:54:30;;;;;;;14.38;7.75;;;-1.10;75.50;;;;;;4967569;28;20476;-86
2021/01/31 09:56:58;;;;;;;11.70;6.35;;;-1.10;74.60;;;;;;5012052;28;20037;-87
2021/01/31 09:59:29;;;;;;;13.27;7.10;;;-1.10;74.80;;;;;;4993947;28;20037;-86
2021/01/31 10:02:07;;;;;;;18.05;8.48;;;-1.10;74.80;;;;;;5010039;28;20026;-86
2021/01/31 10:04:34;;;;;;;10.50;6.28;;;-1.20;76.60;;;;;;5000567;28;20038;-86
2021/01/31 10:07:39;;;;;;;15.35;6.95;;;-1.20;76.50;;;;;;5009210;28;20326;-85
2021/01/31 10:10:30;;;;;;;13.10;7.25;;;-1.10;75.80;;;;;;4992521;28;20069;-85
2021/01/31 10:13:20;;;;;;;14.73;6.88;;;-1.10;75.00;;;;;;4995231;28;20060;-85
2021/01/31 10:15:53;;;;;;;9.68;5.38;;;-1.10;74.00;;;;;;5009289;28;20469;-85
2021/01/31 10:18:34;;;;;;;15.55;9.00;;;-1.10;73.70;;;;;;5009210;28;20427;-86
2021/01/31 10:21:15;;;;;;;;;;;-1.00;73.50;;;;;;5005064;28;20022;-85
2021/01/31 10:23:42;;;;;;;9.68;5.15;;;-1.00;72.20;;;;;;5008210;28;20351;-84
2021/01/31 10:26:13;;;;;;;9.90;5.43;;;-1.00;73.40;;;;;;4992329;28;20022;-85
2021/01/31 10:28:47;;;;;;;9.35;4.63;;;-1.00;73.00;;;;;;4992576;28;20092;-86
2021/01/31 10:31:28;;;;;;;27.13;6.75;;;-1.00;73.00;;;;;;4992512;28;20034;-89
2021/01/31 10:33:54;;;;;;;10.13;5.72;;;-1.10;77.40;;;;;;5008895;28;20060;-85
2021/01/31 10:36:27;;;;;;;9.85;5.20;;;-1.10;86.10;;;;;;5011920;28;20041;-86
2021/01/31 10:39:03;;;;;;;9.30;5.40;;;-1.20;83.50;;;;;;5010058;28;20040;-85
2021/01/31 10:41:28;;;;;;;14.32;6.45;;;-1.20;79.50;;;;;;5007503;28;20093;-84
2021/01/31 10:43:59;;;;;;;104.65;50.15;;;-1.20;75.70;;;;;;5007747;28;20045;-84
2021/01/31 10:46:25;;;;;;;;;;;-1.20;76.10;;;;;;5008643;28;20105;-84
2021/01/31 10:48:51;;;;;;;14.55;7.43;;;-1.20;75.90;;;;;;5012842;28;19957;-85
2021/01/31 10:51:16;;;;;;;13.95;6.70;;;-1.10;75.90;;;;;;5014829;28;20187;-85
2021/01/31 10:53:43;;;;;;;10.65;6.32;;;-1.10;74.40;;;;;;5010321;28;20321;-85
2021/01/31 10:56:08;;;;;;;15.55;7.28;;;-1.10;73.20;;;;;;5011590;28;20541;-84
2021/01/31 10:58:34;;;;;;;12.85;5.85;;;-1.20;73.60;;;;;;5012014;28;20038;-87
2021/01/31 11:01:00;;;;;;;12.90;6.97;;;-1.20;72.10;;;;;;5013346;28;20091;-86
2021/01/31 11:03:25;;;;;;;12.77;7.47;;;-1.30;72.60;;;;;;5015584;28;20495;-85
2021/01/31 11:05:51;;;;;;;11.95;7.25;;;-1.30;74.30;;;;;;5011841;28;20045;-85
2021/01/31 11:08:17;;;;;;;12.85;7.00;;;-1.30;74.30;;;;;;5009921;28;20033;-85
2021/01/31 11:10:42;;;;;;;12.07;6.53;;;-1.40;73.40;;;;;;5012611;28;20373;-85
2021/01/31 11:13:08;;;;;;;10.57;5.60;;;-1.40;71.80;;;;;;5011277;28;20390;-85
2021/01/31 11:15:34;;;;;;;10.98;6.10;;;-1.30;72.40;;;;;;5012988;28;20395;-85
2021/01/31 11:18:00;;;;;;;11.52;6.68;;;-1.50;73.00;;;;;;5013891;28;20025;-85
2021/01/31 11:20:25;;;;;;;13.85;6.55;;;-1.40;74.10;;;;;;5010524;28;20030;-85
2021/01/31 11:22:51;;;;;;;10.25;6.32;;;-1.40;72.70;;;;;;5010835;28;20030;-85
2021/01/31 11:25:17;;;;;;;15.63;7.40;;;-1.40;73.90;;;;;;5012398;28;20041;-86
2021/01/31 11:27:43;;;;;;;11.45;7.32;;;-1.30;74.60;;;;;;5012659;28;20026;-85
2021/01/31 11:30:09;;;;;;;13.95;7.60;;;-1.30;72.30;;;;;;5014622;28;20399;-85
2021/01/31 11:32:35;;;;;;;13.15;7.00;;;-1.30;72.70;;;;;;4995908;28;20037;-85
2021/01/31 11:35:00;;;;;;;12.50;7.20;;;-1.30;72.40;;;;;;5010442;28;20042;-86
2021/01/31 11:37:26;;;;;;;10.32;6.68;;;-1.30;71.70;;;;;;5011287;28;20041;-86
2021/01/31 11:39:52;;;;;;;16.65;6.72;;;-1.30;71.10;;;;;;5010902;28;20072;-85
2021/01/31 11:42:17;;;;;;;14.57;8.48;;;-1.20;71.40;;;;;;5009791;28;20029;-87
2021/01/31 11:44:44;;;;;;;16.23;8.02;;;-1.30;70.10;;;;;;5010380;28;20066;-85
2021/01/31 11:47:10;;;;;;;14.35;8.65;;;-1.30;71.50;;;;;;5006809;28;20029;-87
2021/01/31 11:49:35;;;;;;;13.95;9.18;;;-1.30;71.80;;;;;;4993472;28;20026;-87
2021/01/31 11:52:01;;;;;;;15.60;9.00;;;-1.30;71.30;;;;;;5010128;28;20404;-86
2021/01/31 11:54:27;;;;;;;19.55;8.80;;;-1.20;71.40;;;;;;5013809;28;20468;-88
2021/01/31 11:56:53;;;;;;;19.52;8.68;;;-1.10;71.30;;;;;;5010232;28;20506;-86
2021/01/31 11:59:18;;;;;;;15.15;8.35;;;-1.20;70.80;;;;;;4995315;28;20421;-86
2021/01/31 12:01:44;;;;;;;15.55;8.60;;;-1.10;70.70;;;;;;5010221;28;20034;-86
2021/01/31 12:04:09;;;;;;;16.25;8.48;;;-1.10;70.10;;;;;;5010233;28;20030;-88
2021/01/31 12:06:35;;;;;;;44.25;24.70;;;-1.10;70.30;;;;;;5011693;28;20072;-85
2021/01/31 12:09:02;;;;;;;48.63;24.98;;;-1.20;69.90;;;;;;5010028;28;20037;-87
2021/01/31 12:11:28;;;;;;;14.35;8.85;;;-1.10;71.10;;;;;;4990746;28;20041;-87
2021/01/31 12:13:56;;;;;;;17.60;9.00;;;-1.20;70.20;;;;;;5010472;28;20396;-86
2021/01/31 12:16:21;;;;;;;15.98;9.13;;;-1.20;70.30;;;;;;5011525;28;20022;-87
2021/01/31 12:18:47;;;;;;;15.18;9.15;;;-1.20;70.20;;;;;;5010173;28;20033;-86
2021/01/31 12:21:13;;;;;;;15.93;9.60;;;-1.20;70.40;;;;;;5012097;28;20022;-86
2021/01/31 12:23:38;;;;;;;17.25;8.93;;;-1.10;70.70;;;;;;5010892;28;20034;-87
2021/01/31 12:26:04;;;;;;;19.02;9.65;;;-1.10;70.80;;;;;;5009541;28;20022;-87
2021/01/31 12:28:29;;;;;;;19.85;11.18;;;-1.10;70.60;;;;;;5008942;28;20373;-86
2021/01/31 12:30:55;;;;;;;19.30;10.90;;;-1.10;70.60;;;;;;5010283;28;20029;-87
2021/01/31 12:33:21;;;;;;;20.25;11.23;;;-1.10;69.90;;;;;;5014257;28;20052;-86
2021/01/31 12:35:46;;;;;;;17.77;10.40;;;-1.20;69.80;;;;;;5009420;28;20312;-87
2021/01/31 12:38:12;;;;;;;16.60;9.98;;;-1.20;70.00;;;;;;4992228;28;20477;-87
2021/01/31 12:40:38;;;;;;;17.67;10.02;;;-1.20;69.60;;;;;;5010063;28;20076;-87
2021/01/31 12:43:04;;;;;;;21.77;11.32;;;-1.20;70.70;;;;;;5009770;28;20037;-87
2021/01/31 12:45:29;;;;;;;21.50;11.38;;;-1.10;70.00;;;;;;4996220;28;20084;-86
2021/01/31 12:47:56;;;;;;;19.73;12.45;;;-1.10;69.70;;;;;;5011959;28;20061;-86
2021/01/31 12:50:25;;;;;;;19.52;11.38;;;-1.20;70.90;;;;;;5009786;28;20403;-86
2021/01/31 12:52:51;;;;;;;19.15;11.20;;;-1.20;70.70;;;;;;5009270;28;20468;-87
2021/01/31 12:55:17;;;;;;;19.50;10.57;;;-1.10;70.90;;;;;;5008161;28;20106;-87
2021/01/31 12:57:42;;;;;;;21.33;11.68;;;-1.10;70.60;;;;;;5011888;28;20041;-87
2021/01/31 13:00:12;;;;;;;21.67;11.35;;;-1.10;70.70;;;;;;4992324;28;20480;-86
2021/01/31 13:02:41;;;;;;;19.65;11.30;;;-1.10;70.40;;;;;;5011461;28;20026;-86
2021/01/31 13:05:08;;;;;;;45.58;23.92;;;-1.10;70.30;;;;;;4991166;28;20026;-87
2021/01/31 13:07:34;;;;;;;24.75;12.85;;;-1.10;69.80;;;;;;4989090;28;20175;-86
2021/01/31 13:10:00;;;;;;;16.98;11.05;;;-1.00;70.40;;;;;;4987129;28;20101;-87
2021/01/31 13:12:25;;;;;;;19.42;11.45;;;-1.00;70.40;;;;;;5006687;28;20041;-85
2021/01/31 13:14:51;;;;;;;24.60;12.35;;;-1.00;70.60;;;;;;4991189;28;20037;-86
2021/01/31 13:17:17;;;;;;;20.90;11.05;;;-1.10;70.70;;;;;;5007504;28;20484;-85
2021/01/31 13:19:43;;;;;;;23.13;11.63;;;-1.10;70.50;;;;;;5003940;28;20025;-86
2021/01/31 13:22:09;;;;;;;21.48;10.70;;;-1.10;70.80;;;;;;5010547;28;20068;-85
2021/01/31 13:24:35;;;;;;;21.73;11.88;;;-1.00;70.50;;;;;;5003187;28;20105;-86
2021/01/31 13:27:00;;;;;;;19.10;11.32;;;-1.10;70.20;;;;;;5008120;28;20037;-87
2021/01/31 13:29:26;;;;;;;20.80;11.23;;;-1.10;70.40;;;;;;4988271;28;20033;-87
2021/01/31 13:31:51;;;;;;;21.92;12.45;;;-1.10;70.20;;;;;;5005341;28;20124;-86
2021/01/31 13:34:17;;;;;;;23.00;11.88;;;-1.10;70.60;;;;;;5008350;28;20424;-86